sensor_id;sensor_type;location;lat;lon;timestamp;P1;durP1;ratioP1;P2;durP2;ratioP2
76610;SDS011;65503;48.534;9.062;2022-12-29T00:01:43;4.80;;;1.80;;
76610;SDS011;65503;48.534;9.062;2022-12-29T00:04:11;4.75;;;1.52;;
76610;SDS011;65503;48.534;9.062;2022-12-29T00:06:41;5.07;;;1.58;;
76610;SDS011;65503;48.534;9.062;2022-12-29T00:11:37;3.75;;;1.40;;
76610;SDS011;65503;48.534;9.062;2022-12-29T00:14:04;6.80;;;1.83;;
76610;SDS011;65503;48.534;9.062;2022-12-29T00:16:51;5.10;;;1.30;;
76610;SDS011;65503;48.534;9.062;2022-12-29T00:19:18;4.05;;;1.50;;
76610;SDS011;65503;48.534;9.062;2022-12-29T00:22:03;6.65;;;2.00;;
76610;SDS011;65503;48.534;9.062;2022-12-29T00:24:48;5.57;;;1.77;;
76610;SDS011;65503;48.534;9.062;2022-12-29T00:27:33;4.90;;;1.98;;
76610;SDS011;65503;48.534;9.062;2022-12-29T00:30:31;5.80;;;2.30;;
76610;SDS011;65503;48.534;9.062;2022-12-29T00:33:17;5.38;;;2.30;;
76610;SDS011;65503;48.534;9.062;2022-12-29T00:36:23;4.82;;;2.22;;
76610;SDS011;65503;48.534;9.062;2022-12-29T00:39:00;3.72;;;1.80;;
76610;SDS011;65503;48.534;9.062;2022-12-29T00:41:48;5.53;;;1.98;;
76610;SDS011;65503;48.534;9.062;2022-12-29T00:44:33;10.38;;;3.22;;
76610;SDS011;65503;48.534;9.062;2022-12-29T00:46:59;7.00;;;2.67;;
76610;SDS011;65503;48.534;9.062;2022-12-29T00:49:29;9.88;;;2.63;;
76610;SDS011;65503;48.534;9.062;2022-12-29T00:52:07;7.15;;;2.90;;
76610;SDS011;65503;48.534;9.062;2022-12-29T00:54:36;6.28;;;2.40;;
76610;SDS011;65503;48.534;9.062;2022-12-29T00:57:05;5.22;;;2.03;;
76610;SDS011;65503;48.534;9.062;2022-12-29T00:59:36;7.10;;;1.90;;
76610;SDS011;65503;48.534;9.062;2022-12-29T01:02:04;5.30;;;1.98;;
76610;SDS011;65503;48.534;9.062;2022-12-29T01:04:31;3.55;;;1.63;;
76610;SDS011;65503;48.534;9.062;2022-12-29T01:06:58;4.05;;;1.88;;
76610;SDS011;65503;48.534;9.062;2022-12-29T01:09:24;7.30;;;1.90;;
76610;SDS011;65503;48.534;9.062;2022-12-29T01:12:17;6.70;;;2.03;;
76610;SDS011;65503;48.534;9.062;2022-12-29T01:15:04;5.70;;;1.92;;
76610;SDS011;65503;48.534;9.062;2022-12-29T01:17:32;4.50;;;2.15;;
76610;SDS011;65503;48.534;9.062;2022-12-29T01:19:59;5.15;;;1.70;;
76610;SDS011;65503;48.534;9.062;2022-12-29T01:22:27;4.55;;;1.90;;
76610;SDS011;65503;48.534;9.062;2022-12-29T01:24:53;5.85;;;2.08;;
76610;SDS011;65503;48.534;9.062;2022-12-29T01:27:20;6.30;;;1.65;;
76610;SDS011;65503;48.534;9.062;2022-12-29T01:29:46;4.75;;;1.90;;
76610;SDS011;65503;48.534;9.062;2022-12-29T01:32:13;3.75;;;1.83;;
76610;SDS011;65503;48.534;9.062;2022-12-29T01:34:39;6.07;;;1.98;;
76610;SDS011;65503;48.534;9.062;2022-12-29T01:37:06;7.10;;;1.95;;
76610;SDS011;65503;48.534;9.062;2022-12-29T01:39:33;3.15;;;1.60;;
76610;SDS011;65503;48.534;9.062;2022-12-29T01:41:59;4.82;;;1.90;;
76610;SDS011;65503;48.534;9.062;2022-12-29T01:44:46;5.07;;;1.70;;
76610;SDS011;65503;48.534;9.062;2022-12-29T01:47:17;4.55;;;1.67;;
76610;SDS011;65503;48.534;9.062;2022-12-29T01:49:48;6.35;;;2.00;;
76610;SDS011;65503;48.534;9.062;2022-12-29T01:52:16;4.10;;;1.75;;
76610;SDS011;65503;48.534;9.062;2022-12-29T01:54:44;5.22;;;2.00;;
76610;SDS011;65503;48.534;9.062;2022-12-29T01:57:17;6.30;;;2.38;;
76610;SDS011;65503;48.534;9.062;2022-12-29T01:59:53;3.45;;;1.55;;
76610;SDS011;65503;48.534;9.062;2022-12-29T02:02:25;4.93;;;1.58;;
76610;SDS011;65503;48.534;9.062;2022-12-29T02:04:58;2.47;;;1.30;;
76610;SDS011;65503;48.534;9.062;2022-12-29T02:07:30;4.85;;;2.08;;
76610;SDS011;65503;48.534;9.062;2022-12-29T02:09:57;3.63;;;1.80;;
76610;SDS011;65503;48.534;9.062;2022-12-29T02:12:26;3.95;;;1.48;;
76610;SDS011;65503;48.534;9.062;2022-12-29T02:14:54;5.55;;;1.30;;
76610;SDS011;65503;48.534;9.062;2022-12-29T02:25:31;4.60;;;1.50;;
76610;SDS011;65503;48.534;9.062;2022-12-29T02:28:22;2.65;;;1.30;;
76610;SDS011;65503;48.534;9.062;2022-12-29T02:36:37;2.28;;;1.20;;
76610;SDS011;65503;48.534;9.062;2022-12-29T02:39:23;2.25;;;1.33;;
76610;SDS011;65503;48.534;9.062;2022-12-29T02:45:11;3.30;;;1.35;;
76610;SDS011;65503;48.534;9.062;2022-12-29T02:51:10;3.80;;;1.50;;
76610;SDS011;65503;48.534;9.062;2022-12-29T02:53:42;2.63;;;1.30;;
76610;SDS011;65503;48.534;9.062;2022-12-29T02:56:28;3.00;;;1.20;;
76610;SDS011;65503;48.534;9.062;2022-12-29T02:58:55;5.32;;;1.30;;
76610;SDS011;65503;48.534;9.062;2022-12-29T03:01:23;3.20;;;1.40;;
76610;SDS011;65503;48.534;9.062;2022-12-29T03:04:13;6.95;;;1.38;;
76610;SDS011;65503;48.534;9.062;2022-12-29T03:06:52;4.45;;;1.30;;
76610;SDS011;65503;48.534;9.062;2022-12-29T03:12:47;5.30;;;1.15;;
76610;SDS011;65503;48.534;9.062;2022-12-29T03:21:19;3.75;;;1.30;;
76610;SDS011;65503;48.534;9.062;2022-12-29T03:24:16;3.92;;;1.08;;
76610;SDS011;65503;48.534;9.062;2022-12-29T03:26:48;6.35;;;1.67;;
76610;SDS011;65503;48.534;9.062;2022-12-29T03:29:17;3.05;;;1.05;;
76610;SDS011;65503;48.534;9.062;2022-12-29T03:31:45;2.35;;;1.70;;
76610;SDS011;65503;48.534;9.062;2022-12-29T03:34:14;3.78;;;1.23;;
76610;SDS011;65503;48.534;9.062;2022-12-29T03:36:44;6.43;;;1.05;;
76610;SDS011;65503;48.534;9.062;2022-12-29T03:39:16;2.90;;;1.38;;
76610;SDS011;65503;48.534;9.062;2022-12-29T03:41:46;3.33;;;1.70;;
76610;SDS011;65503;48.534;9.062;2022-12-29T03:44:17;8.88;;;1.30;;
76610;SDS011;65503;48.534;9.062;2022-12-29T03:46:43;4.20;;;1.10;;
76610;SDS011;65503;48.534;9.062;2022-12-29T03:49:10;3.58;;;1.20;;
76610;SDS011;65503;48.534;9.062;2022-12-29T03:51:36;5.07;;;1.10;;
76610;SDS011;65503;48.534;9.062;2022-12-29T03:54:03;3.92;;;1.00;;
76610;SDS011;65503;48.534;9.062;2022-12-29T03:56:29;5.28;;;1.40;;
76610;SDS011;65503;48.534;9.062;2022-12-29T03:58:56;4.68;;;1.38;;
76610;SDS011;65503;48.534;9.062;2022-12-29T04:01:22;5.35;;;1.00;;
76610;SDS011;65503;48.534;9.062;2022-12-29T04:03:49;3.50;;;1.60;;
76610;SDS011;65503;48.534;9.062;2022-12-29T04:06:16;2.45;;;1.10;;
76610;SDS011;65503;48.534;9.062;2022-12-29T04:08:42;3.08;;;1.10;;
76610;SDS011;65503;48.534;9.062;2022-12-29T04:11:09;2.63;;;1.10;;
76610;SDS011;65503;48.534;9.062;2022-12-29T04:13:35;6.28;;;1.30;;
76610;SDS011;65503;48.534;9.062;2022-12-29T04:16:02;4.15;;;1.15;;
76610;SDS011;65503;48.534;9.062;2022-12-29T04:18:28;3.28;;;1.20;;
76610;SDS011;65503;48.534;9.062;2022-12-29T04:20:55;5.45;;;1.50;;
76610;SDS011;65503;48.534;9.062;2022-12-29T04:23:29;5.97;;;1.63;;
76610;SDS011;65503;48.534;9.062;2022-12-29T04:25:58;1.83;;;1.13;;
76610;SDS011;65503;48.534;9.062;2022-12-29T04:28:24;4.82;;;1.30;;
76610;SDS011;65503;48.534;9.062;2022-12-29T04:30:51;3.80;;;1.05;;
76610;SDS011;65503;48.534;9.062;2022-12-29T04:33:18;4.53;;;1.20;;
76610;SDS011;65503;48.534;9.062;2022-12-29T04:35:45;4.20;;;1.40;;
76610;SDS011;65503;48.534;9.062;2022-12-29T04:38:12;4.70;;;1.15;;
76610;SDS011;65503;48.534;9.062;2022-12-29T04:40:40;7.88;;;1.40;;
76610;SDS011;65503;48.534;9.062;2022-12-29T04:43:08;3.42;;;1.33;;
76610;SDS011;65503;48.534;9.062;2022-12-29T04:45:36;3.28;;;1.52;;
76610;SDS011;65503;48.534;9.062;2022-12-29T04:48:02;3.47;;;1.35;;
76610;SDS011;65503;48.534;9.062;2022-12-29T04:50:29;2.72;;;1.15;;
76610;SDS011;65503;48.534;9.062;2022-12-29T04:52:55;5.00;;;1.48;;
76610;SDS011;65503;48.534;9.062;2022-12-29T04:55:22;2.15;;;1.20;;
76610;SDS011;65503;48.534;9.062;2022-12-29T04:57:48;3.30;;;1.45;;
76610;SDS011;65503;48.534;9.062;2022-12-29T05:00:15;4.88;;;1.52;;
76610;SDS011;65503;48.534;9.062;2022-12-29T05:02:42;5.85;;;1.20;;
76610;SDS011;65503;48.534;9.062;2022-12-29T05:05:08;4.75;;;1.40;;
76610;SDS011;65503;48.534;9.062;2022-12-29T05:07:35;2.95;;;1.38;;
76610;SDS011;65503;48.534;9.062;2022-12-29T05:10:02;4.10;;;1.40;;
76610;SDS011;65503;48.534;9.062;2022-12-29T05:12:30;3.65;;;1.30;;
76610;SDS011;65503;48.534;9.062;2022-12-29T05:14:57;2.53;;;1.20;;
76610;SDS011;65503;48.534;9.062;2022-12-29T05:17:24;3.47;;;1.30;;
76610;SDS011;65503;48.534;9.062;2022-12-29T05:19:51;5.35;;;1.95;;
76610;SDS011;65503;48.534;9.062;2022-12-29T05:22:17;4.57;;;1.48;;
76610;SDS011;65503;48.534;9.062;2022-12-29T05:24:44;4.10;;;1.23;;
76610;SDS011;65503;48.534;9.062;2022-12-29T05:27:10;3.95;;;1.58;;
76610;SDS011;65503;48.534;9.062;2022-12-29T05:29:37;3.85;;;1.27;;
76610;SDS011;65503;48.534;9.062;2022-12-29T05:32:03;3.60;;;1.15;;
76610;SDS011;65503;48.534;9.062;2022-12-29T05:34:30;4.20;;;1.25;;
76610;SDS011;65503;48.534;9.062;2022-12-29T05:36:56;5.82;;;1.42;;
76610;SDS011;65503;48.534;9.062;2022-12-29T05:39:23;4.88;;;1.20;;
76610;SDS011;65503;48.534;9.062;2022-12-29T05:41:49;4.60;;;1.42;;
76610;SDS011;65503;48.534;9.062;2022-12-29T05:44:16;3.22;;;1.25;;
76610;SDS011;65503;48.534;9.062;2022-12-29T05:46:43;3.25;;;1.17;;
76610;SDS011;65503;48.534;9.062;2022-12-29T05:49:10;3.85;;;1.35;;
76610;SDS011;65503;48.534;9.062;2022-12-29T05:51:36;3.90;;;1.40;;
76610;SDS011;65503;48.534;9.062;2022-12-29T05:54:03;2.95;;;1.10;;
76610;SDS011;65503;48.534;9.062;2022-12-29T05:56:29;3.45;;;1.13;;
76610;SDS011;65503;48.534;9.062;2022-12-29T05:58:56;2.35;;;1.33;;
76610;SDS011;65503;48.534;9.062;2022-12-29T06:01:22;7.32;;;1.30;;
76610;SDS011;65503;48.534;9.062;2022-12-29T06:03:49;3.90;;;1.13;;
76610;SDS011;65503;48.534;9.062;2022-12-29T06:06:16;2.90;;;0.98;;
76610;SDS011;65503;48.534;9.062;2022-12-29T06:08:42;2.45;;;1.10;;
76610;SDS011;65503;48.534;9.062;2022-12-29T06:11:09;3.67;;;1.48;;
76610;SDS011;65503;48.534;9.062;2022-12-29T06:13:36;1.90;;;1.10;;
76610;SDS011;65503;48.534;9.062;2022-12-29T06:16:02;3.75;;;1.23;;
76610;SDS011;65503;48.534;9.062;2022-12-29T06:18:29;1.92;;;1.15;;
76610;SDS011;65503;48.534;9.062;2022-12-29T06:21:03;4.88;;;1.55;;
76610;SDS011;65503;48.534;9.062;2022-12-29T06:25:57;6.95;;;1.88;;
76610;SDS011;65503;48.534;9.062;2022-12-29T06:28:23;4.47;;;1.40;;
76610;SDS011;65503;48.534;9.062;2022-12-29T06:30:50;4.78;;;1.42;;
76610;SDS011;65503;48.534;9.062;2022-12-29T06:33:16;2.03;;;1.40;;
76610;SDS011;65503;48.534;9.062;2022-12-29T06:35:43;3.60;;;1.35;;
76610;SDS011;65503;48.534;9.062;2022-12-29T06:38:10;1.92;;;1.20;;
76610;SDS011;65503;48.534;9.062;2022-12-29T06:40:36;3.28;;;1.27;;
76610;SDS011;65503;48.534;9.062;2022-12-29T06:43:03;3.28;;;1.20;;
76610;SDS011;65503;48.534;9.062;2022-12-29T06:45:29;3.22;;;1.27;;
76610;SDS011;65503;48.534;9.062;2022-12-29T06:47:55;6.22;;;1.35;;
76610;SDS011;65503;48.534;9.062;2022-12-29T06:50:22;3.83;;;1.65;;
76610;SDS011;65503;48.534;9.062;2022-12-29T06:52:49;2.35;;;1.20;;
76610;SDS011;65503;48.534;9.062;2022-12-29T06:55:15;2.35;;;1.17;;
76610;SDS011;65503;48.534;9.062;2022-12-29T06:57:42;4.78;;;1.42;;
76610;SDS011;65503;48.534;9.062;2022-12-29T07:00:09;6.60;;;1.52;;
76610;SDS011;65503;48.534;9.062;2022-12-29T07:02:35;3.55;;;1.50;;
76610;SDS011;65503;48.534;9.062;2022-12-29T07:05:02;3.47;;;1.73;;
76610;SDS011;65503;48.534;9.062;2022-12-29T07:07:29;3.20;;;1.50;;
76610;SDS011;65503;48.534;9.062;2022-12-29T07:09:55;6.68;;;1.33;;
76610;SDS011;65503;48.534;9.062;2022-12-29T07:12:22;5.13;;;1.40;;
76610;SDS011;65503;48.534;9.062;2022-12-29T07:14:48;4.22;;;1.30;;
76610;SDS011;65503;48.534;9.062;2022-12-29T07:17:14;3.92;;;1.33;;
76610;SDS011;65503;48.534;9.062;2022-12-29T07:19:41;1.92;;;1.20;;
76610;SDS011;65503;48.534;9.062;2022-12-29T07:22:08;4.18;;;1.20;;
76610;SDS011;65503;48.534;9.062;2022-12-29T07:24:35;3.17;;;1.40;;
76610;SDS011;65503;48.534;9.062;2022-12-29T07:27:02;2.78;;;1.27;;
76610;SDS011;65503;48.534;9.062;2022-12-29T07:29:28;4.50;;;1.30;;
76610;SDS011;65503;48.534;9.062;2022-12-29T07:31:54;3.85;;;1.50;;
76610;SDS011;65503;48.534;9.062;2022-12-29T07:34:21;4.40;;;1.30;;
76610;SDS011;65503;48.534;9.062;2022-12-29T07:36:48;4.43;;;1.50;;
76610;SDS011;65503;48.534;9.062;2022-12-29T07:39:14;5.20;;;1.27;;
76610;SDS011;65503;48.534;9.062;2022-12-29T07:41:41;2.95;;;1.10;;
76610;SDS011;65503;48.534;9.062;2022-12-29T07:44:08;6.15;;;1.30;;
76610;SDS011;65503;48.534;9.062;2022-12-29T07:46:35;3.40;;;1.25;;
76610;SDS011;65503;48.534;9.062;2022-12-29T07:49:21;2.70;;;1.73;;
76610;SDS011;65503;48.534;9.062;2022-12-29T07:51:48;4.40;;;1.23;;
76610;SDS011;65503;48.534;9.062;2022-12-29T07:54:14;2.10;;;1.10;;
76610;SDS011;65503;48.534;9.062;2022-12-29T07:56:44;5.22;;;1.10;;
76610;SDS011;65503;48.534;9.062;2022-12-29T07:59:11;3.70;;;1.27;;
76610;SDS011;65503;48.534;9.062;2022-12-29T08:01:38;3.22;;;1.10;;
76610;SDS011;65503;48.534;9.062;2022-12-29T08:04:05;5.15;;;1.40;;
76610;SDS011;65503;48.534;9.062;2022-12-29T08:06:32;2.13;;;1.10;;
76610;SDS011;65503;48.534;9.062;2022-12-29T08:08:59;2.47;;;1.27;;
76610;SDS011;65503;48.534;9.062;2022-12-29T08:11:38;3.20;;;1.30;;
76610;SDS011;65503;48.534;9.062;2022-12-29T08:14:06;2.40;;;1.20;;
76610;SDS011;65503;48.534;9.062;2022-12-29T08:16:33;3.20;;;1.20;;
76610;SDS011;65503;48.534;9.062;2022-12-29T08:18:59;3.17;;;1.20;;
76610;SDS011;65503;48.534;9.062;2022-12-29T08:21:29;3.55;;;1.05;;
76610;SDS011;65503;48.534;9.062;2022-12-29T08:23:56;4.05;;;1.38;;
76610;SDS011;65503;48.534;9.062;2022-12-29T08:26:22;3.50;;;1.13;;
76610;SDS011;65503;48.534;9.062;2022-12-29T08:28:49;2.60;;;1.10;;
76610;SDS011;65503;48.534;9.062;2022-12-29T08:31:19;2.55;;;1.05;;
76610;SDS011;65503;48.534;9.062;2022-12-29T08:33:46;6.30;;;1.20;;
76610;SDS011;65503;48.534;9.062;2022-12-29T08:36:12;6.20;;;1.10;;
76610;SDS011;65503;48.534;9.062;2022-12-29T08:38:39;2.50;;;1.25;;
76610;SDS011;65503;48.534;9.062;2022-12-29T08:41:05;5.68;;;1.90;;
76610;SDS011;65503;48.534;9.062;2022-12-29T08:43:32;2.58;;;1.35;;
76610;SDS011;65503;48.534;9.062;2022-12-29T08:45:58;3.17;;;1.30;;
76610;SDS011;65503;48.534;9.062;2022-12-29T08:48:25;5.80;;;1.20;;
76610;SDS011;65503;48.534;9.062;2022-12-29T08:50:52;2.40;;;1.27;;
76610;SDS011;65503;48.534;9.062;2022-12-29T08:53:19;6.50;;;1.60;;
76610;SDS011;65503;48.534;9.062;2022-12-29T08:55:46;2.88;;;1.30;;
76610;SDS011;65503;48.534;9.062;2022-12-29T08:58:13;4.80;;;1.27;;
76610;SDS011;65503;48.534;9.062;2022-12-29T09:00:41;5.95;;;1.58;;
76610;SDS011;65503;48.534;9.062;2022-12-29T09:03:08;5.78;;;1.67;;
76610;SDS011;65503;48.534;9.062;2022-12-29T09:05:35;4.45;;;1.27;;
76610;SDS011;65503;48.534;9.062;2022-12-29T09:08:02;3.53;;;1.30;;
76610;SDS011;65503;48.534;9.062;2022-12-29T09:10:29;4.03;;;1.27;;
76610;SDS011;65503;48.534;9.062;2022-12-29T09:12:55;2.53;;;1.25;;
76610;SDS011;65503;48.534;9.062;2022-12-29T09:15:22;4.40;;;1.40;;
76610;SDS011;65503;48.534;9.062;2022-12-29T09:17:48;2.67;;;1.40;;
76610;SDS011;65503;48.534;9.062;2022-12-29T09:20:16;4.95;;;1.70;;
76610;SDS011;65503;48.534;9.062;2022-12-29T09:22:44;5.32;;;1.45;;
76610;SDS011;65503;48.534;9.062;2022-12-29T09:25:13;4.07;;;1.40;;
76610;SDS011;65503;48.534;9.062;2022-12-29T09:27:40;4.20;;;1.40;;
76610;SDS011;65503;48.534;9.062;2022-12-29T09:30:07;2.85;;;1.40;;
76610;SDS011;65503;48.534;9.062;2022-12-29T09:32:36;3.25;;;1.20;;
76610;SDS011;65503;48.534;9.062;2022-12-29T09:35:09;4.15;;;1.30;;
76610;SDS011;65503;48.534;9.062;2022-12-29T09:37:36;2.85;;;1.25;;
76610;SDS011;65503;48.534;9.062;2022-12-29T09:40:03;4.18;;;1.30;;
76610;SDS011;65503;48.534;9.062;2022-12-29T09:42:38;5.72;;;1.30;;
76610;SDS011;65503;48.534;9.062;2022-12-29T09:45:12;3.90;;;1.90;;
76610;SDS011;65503;48.534;9.062;2022-12-29T09:47:43;2.95;;;1.50;;
76610;SDS011;65503;48.534;9.062;2022-12-29T09:58:04;5.60;;;1.60;;
76610;SDS011;65503;48.534;9.062;2022-12-29T10:03:27;1.88;;;1.10;;
76610;SDS011;65503;48.534;9.062;2022-12-29T10:06:11;3.33;;;1.20;;
76610;SDS011;65503;48.534;9.062;2022-12-29T10:08:43;2.35;;;1.17;;
76610;SDS011;65503;48.534;9.062;2022-12-29T10:14:05;4.63;;;1.40;;
76610;SDS011;65503;48.534;9.062;2022-12-29T10:19:42;2.97;;;1.40;;
76610;SDS011;65503;48.534;9.062;2022-12-29T10:24:59;3.90;;;1.48;;
76610;SDS011;65503;48.534;9.062;2022-12-29T10:27:30;3.13;;;1.20;;
76610;SDS011;65503;48.534;9.062;2022-12-29T10:29:59;3.20;;;1.40;;
76610;SDS011;65503;48.534;9.062;2022-12-29T10:35:12;5.68;;;1.45;;
76610;SDS011;65503;48.534;9.062;2022-12-29T10:45:58;4.05;;;1.60;;
76610;SDS011;65503;48.534;9.062;2022-12-29T10:48:29;4.68;;;1.92;;
76610;SDS011;65503;48.534;9.062;2022-12-29T10:50:58;3.50;;;1.35;;
76610;SDS011;65503;48.534;9.062;2022-12-29T10:53:34;3.85;;;1.45;;
76610;SDS011;65503;48.534;9.062;2022-12-29T10:56:21;4.47;;;1.50;;
76610;SDS011;65503;48.534;9.062;2022-12-29T10:58:57;3.17;;;1.50;;
76610;SDS011;65503;48.534;9.062;2022-12-29T11:01:30;4.45;;;1.38;;
76610;SDS011;65503;48.534;9.062;2022-12-29T11:04:05;2.30;;;1.10;;
76610;SDS011;65503;48.534;9.062;2022-12-29T11:06:49;4.43;;;1.42;;
76610;SDS011;65503;48.534;9.062;2022-12-29T11:09:20;4.05;;;1.20;;
76610;SDS011;65503;48.534;9.062;2022-12-29T11:15:01;5.45;;;1.65;;
76610;SDS011;65503;48.534;9.062;2022-12-29T11:17:46;4.18;;;1.30;;
76610;SDS011;65503;48.534;9.062;2022-12-29T11:20:40;5.32;;;2.05;;
76610;SDS011;65503;48.534;9.062;2022-12-29T11:23:21;6.20;;;1.42;;
76610;SDS011;65503;48.534;9.062;2022-12-29T11:31:49;2.72;;;1.40;;
76610;SDS011;65503;48.534;9.062;2022-12-29T11:34:19;4.25;;;1.38;;
76610;SDS011;65503;48.534;9.062;2022-12-29T11:36:47;4.45;;;1.30;;
76610;SDS011;65503;48.534;9.062;2022-12-29T11:39:23;3.00;;;1.48;;
76610;SDS011;65503;48.534;9.062;2022-12-29T11:42:01;6.28;;;1.65;;
76610;SDS011;65503;48.534;9.062;2022-12-29T11:44:31;4.72;;;2.03;;
76610;SDS011;65503;48.534;9.062;2022-12-29T11:47:04;6.20;;;1.70;;
76610;SDS011;65503;48.534;9.062;2022-12-29T11:49:35;2.38;;;1.30;;
76610;SDS011;65503;48.534;9.062;2022-12-29T11:52:01;4.72;;;1.75;;
76610;SDS011;65503;48.534;9.062;2022-12-29T11:54:32;2.67;;;1.40;;
76610;SDS011;65503;48.534;9.062;2022-12-29T11:57:09;6.78;;;1.48;;
76610;SDS011;65503;48.534;9.062;2022-12-29T11:59:43;6.05;;;1.80;;
76610;SDS011;65503;48.534;9.062;2022-12-29T12:02:27;7.22;;;1.58;;
76610;SDS011;65503;48.534;9.062;2022-12-29T12:05:08;3.38;;;1.30;;
76610;SDS011;65503;48.534;9.062;2022-12-29T12:07:40;3.03;;;1.48;;
76610;SDS011;65503;48.534;9.062;2022-12-29T12:10:15;3.88;;;1.30;;
76610;SDS011;65503;48.534;9.062;2022-12-29T12:12:51;3.22;;;1.58;;
76610;SDS011;65503;48.534;9.062;2022-12-29T12:15:28;3.38;;;1.30;;
76610;SDS011;65503;48.534;9.062;2022-12-29T12:20:57;3.90;;;1.20;;
76610;SDS011;65503;48.534;9.062;2022-12-29T12:28:45;4.55;;;1.60;;
76610;SDS011;65503;48.534;9.062;2022-12-29T12:34:29;5.20;;;1.60;;
76610;SDS011;65503;48.534;9.062;2022-12-29T12:50:49;6.13;;;2.05;;
76610;SDS011;65503;48.534;9.062;2022-12-29T12:53:28;3.35;;;1.70;;
76610;SDS011;65503;48.534;9.062;2022-12-29T13:01:51;4.55;;;1.80;;
76610;SDS011;65503;48.534;9.062;2022-12-29T13:07:07;4.07;;;1.70;;
76610;SDS011;65503;48.534;9.062;2022-12-29T13:10:08;4.43;;;1.52;;
76610;SDS011;65503;48.534;9.062;2022-12-29T13:12:50;6.43;;;2.05;;
76610;SDS011;65503;48.534;9.062;2022-12-29T13:15:21;5.13;;;1.85;;
76610;SDS011;65503;48.534;9.062;2022-12-29T13:21:11;4.68;;;1.70;;
76610;SDS011;65503;48.534;9.062;2022-12-29T13:23:58;5.88;;;2.10;;
76610;SDS011;65503;48.534;9.062;2022-12-29T13:26:50;4.85;;;1.80;;
76610;SDS011;65503;48.534;9.062;2022-12-29T13:32:31;4.75;;;1.80;;
76610;SDS011;65503;48.534;9.062;2022-12-29T13:38:04;5.13;;;1.60;;
76610;SDS011;65503;48.534;9.062;2022-12-29T13:40:40;4.82;;;1.58;;
76610;SDS011;65503;48.534;9.062;2022-12-29T13:43:11;6.32;;;1.70;;
76610;SDS011;65503;48.534;9.062;2022-12-29T13:45:40;4.85;;;1.50;;
76610;SDS011;65503;48.534;9.062;2022-12-29T13:48:19;3.28;;;1.55;;
76610;SDS011;65503;48.534;9.062;2022-12-29T13:50:55;6.97;;;1.70;;
76610;SDS011;65503;48.534;9.062;2022-12-29T13:54:27;4.53;;;1.58;;
76610;SDS011;65503;48.534;9.062;2022-12-29T13:59:36;5.70;;;1.50;;
76610;SDS011;65503;48.534;9.062;2022-12-29T14:02:37;4.70;;;2.00;;
76610;SDS011;65503;48.534;9.062;2022-12-29T14:07:46;3.30;;;1.60;;
76610;SDS011;65503;48.534;9.062;2022-12-29T14:13:11;1.80;;;1.13;;
76610;SDS011;65503;48.534;9.062;2022-12-29T14:15:41;3.33;;;1.50;;
76610;SDS011;65503;48.534;9.062;2022-12-29T14:18:14;4.15;;;1.40;;
76610;SDS011;65503;48.534;9.062;2022-12-29T14:20:49;3.67;;;1.48;;
76610;SDS011;65503;48.534;9.062;2022-12-29T14:28:24;3.60;;;1.73;;
76610;SDS011;65503;48.534;9.062;2022-12-29T14:30:55;4.90;;;1.73;;
76610;SDS011;65503;48.534;9.062;2022-12-29T14:33:24;4.70;;;1.80;;
76610;SDS011;65503;48.534;9.062;2022-12-29T14:35:53;6.63;;;1.40;;
76610;SDS011;65503;48.534;9.062;2022-12-29T14:38:24;3.30;;;1.42;;
76610;SDS011;65503;48.534;9.062;2022-12-29T14:40:53;3.03;;;1.35;;
76610;SDS011;65503;48.534;9.062;2022-12-29T14:44:09;3.20;;;1.40;;
76610;SDS011;65503;48.534;9.062;2022-12-29T14:46:44;3.22;;;1.52;;
76610;SDS011;65503;48.534;9.062;2022-12-29T14:49:16;2.90;;;1.48;;
76610;SDS011;65503;48.534;9.062;2022-12-29T14:51:46;5.07;;;1.50;;
76610;SDS011;65503;48.534;9.062;2022-12-29T14:56:59;5.03;;;1.63;;
76610;SDS011;65503;48.534;9.062;2022-12-29T14:59:28;3.75;;;1.70;;
76610;SDS011;65503;48.534;9.062;2022-12-29T15:01:58;2.92;;;1.35;;
76610;SDS011;65503;48.534;9.062;2022-12-29T15:04:32;3.03;;;1.45;;
76610;SDS011;65503;48.534;9.062;2022-12-29T15:07:02;7.00;;;1.55;;
76610;SDS011;65503;48.534;9.062;2022-12-29T15:09:35;3.15;;;1.50;;
76610;SDS011;65503;48.534;9.062;2022-12-29T15:12:21;3.80;;;1.70;;
76610;SDS011;65503;48.534;9.062;2022-12-29T15:14:57;4.78;;;1.63;;
76610;SDS011;65503;48.534;9.062;2022-12-29T15:17:26;6.57;;;2.05;;
76610;SDS011;65503;48.534;9.062;2022-12-29T15:19:54;5.15;;;1.52;;
76610;SDS011;65503;48.534;9.062;2022-12-29T15:22:21;4.28;;;1.60;;
76610;SDS011;65503;48.534;9.062;2022-12-29T15:24:49;3.63;;;1.70;;
76610;SDS011;65503;48.534;9.062;2022-12-29T15:27:22;4.93;;;2.03;;
76610;SDS011;65503;48.534;9.062;2022-12-29T15:29:58;3.92;;;1.80;;
76610;SDS011;65503;48.534;9.062;2022-12-29T15:32:28;4.63;;;1.75;;
76610;SDS011;65503;48.534;9.062;2022-12-29T15:35:16;4.35;;;1.80;;
76610;SDS011;65503;48.534;9.062;2022-12-29T15:37:56;4.00;;;1.70;;
76610;SDS011;65503;48.534;9.062;2022-12-29T15:46:08;5.70;;;1.63;;
76610;SDS011;65503;48.534;9.062;2022-12-29T15:48:37;2.55;;;1.52;;
76610;SDS011;65503;48.534;9.062;2022-12-29T15:51:11;4.25;;;1.73;;
76610;SDS011;65503;48.534;9.062;2022-12-29T15:53:46;4.80;;;1.70;;
76610;SDS011;65503;48.534;9.062;2022-12-29T15:56:15;3.38;;;1.33;;
76610;SDS011;65503;48.534;9.062;2022-12-29T15:58:43;4.30;;;1.70;;
76610;SDS011;65503;48.534;9.062;2022-12-29T16:01:17;4.00;;;1.50;;
76610;SDS011;65503;48.534;9.062;2022-12-29T16:03:57;5.35;;;1.90;;
76610;SDS011;65503;48.534;9.062;2022-12-29T16:06:27;3.45;;;1.27;;
76610;SDS011;65503;48.534;9.062;2022-12-29T16:09:28;6.15;;;2.00;;
76610;SDS011;65503;48.534;9.062;2022-12-29T16:12:01;4.10;;;1.55;;
76610;SDS011;65503;48.534;9.062;2022-12-29T16:14:37;6.95;;;2.13;;
76610;SDS011;65503;48.534;9.062;2022-12-29T16:17:09;7.13;;;2.08;;
76610;SDS011;65503;48.534;9.062;2022-12-29T16:19:39;5.40;;;1.77;;
76610;SDS011;65503;48.534;9.062;2022-12-29T16:22:10;6.47;;;1.90;;
76610;SDS011;65503;48.534;9.062;2022-12-29T16:24:41;6.82;;;2.28;;
76610;SDS011;65503;48.534;9.062;2022-12-29T16:27:09;5.60;;;2.25;;
76610;SDS011;65503;48.534;9.062;2022-12-29T16:29:42;6.88;;;3.00;;
76610;SDS011;65503;48.534;9.062;2022-12-29T16:32:26;6.03;;;2.30;;
76610;SDS011;65503;48.534;9.062;2022-12-29T16:37:38;6.47;;;2.20;;
76610;SDS011;65503;48.534;9.062;2022-12-29T16:42:45;5.20;;;2.40;;
76610;SDS011;65503;48.534;9.062;2022-12-29T16:47:47;5.78;;;2.10;;
76610;SDS011;65503;48.534;9.062;2022-12-29T16:50:35;4.13;;;1.98;;
76610;SDS011;65503;48.534;9.062;2022-12-29T16:53:03;6.25;;;1.92;;
76610;SDS011;65503;48.534;9.062;2022-12-29T16:55:31;4.70;;;1.98;;
76610;SDS011;65503;48.534;9.062;2022-12-29T16:57:58;4.63;;;1.80;;
76610;SDS011;65503;48.534;9.062;2022-12-29T17:00:27;4.55;;;2.00;;
76610;SDS011;65503;48.534;9.062;2022-12-29T17:02:59;6.07;;;2.10;;
76610;SDS011;65503;48.534;9.062;2022-12-29T17:05:27;5.40;;;2.20;;
76610;SDS011;65503;48.534;9.062;2022-12-29T17:07:54;4.28;;;1.70;;
76610;SDS011;65503;48.534;9.062;2022-12-29T17:10:27;4.50;;;1.80;;
76610;SDS011;65503;48.534;9.062;2022-12-29T17:13:13;4.57;;;1.85;;
76610;SDS011;65503;48.534;9.062;2022-12-29T17:15:40;11.25;;;3.03;;
76610;SDS011;65503;48.534;9.062;2022-12-29T17:18:06;11.40;;;3.30;;
76610;SDS011;65503;48.534;9.062;2022-12-29T17:20:39;14.90;;;4.15;;
76610;SDS011;65503;48.534;9.062;2022-12-29T17:23:10;4.38;;;1.88;;
76610;SDS011;65503;48.534;9.062;2022-12-29T17:25:47;4.65;;;2.00;;
76610;SDS011;65503;48.534;9.062;2022-12-29T17:30:57;5.43;;;1.95;;
76610;SDS011;65503;48.534;9.062;2022-12-29T17:33:26;6.47;;;2.10;;
76610;SDS011;65503;48.534;9.062;2022-12-29T17:35:56;6.10;;;2.22;;
76610;SDS011;65503;48.534;9.062;2022-12-29T17:38:25;6.50;;;2.00;;
76610;SDS011;65503;48.534;9.062;2022-12-29T17:40:54;5.30;;;2.13;;
76610;SDS011;65503;48.534;9.062;2022-12-29T17:43:21;6.43;;;2.20;;